Terminal Aerodrome Forecast
Issued by NWS Cleveland, OH

Home | Current Version | Previous Version | Graphics & Text | Print | Product List | Glossary Off
Versions: 1 2 3 4 5 6 7 8 9 10 11 12 13 14 15 16 17 18 19 20 21

916
FTUS41 KCLE 120332 AAA
TAFERI
TAF AMD
KERI 120332Z 1204/1224 27010KT P6SM SCT025 BKN035
     FM120600 23008KT P6SM VCSH BKN035
      TEMPO 1206/1210 3SM -SHSN OVC025
     FM122000 23015G25KT 4SM -SHSN OVC035=

USA.gov is the U.S. government's official web portal to all federal, state and local government web resources and services.